Sevier River near Sigurd




Date Battery Voltage (V) Panel Temperature (degC) River Stage (ft) River Discharge (cfs)
07/01/2017 13.34 24.27 0.83 17
07/02/2017 13.34 24.77 0.82 16
07/03/2017 13.34 25.16 1.29 49
07/04/2017 13.31 26.52 1.50 65
07/05/2017 13.29 26.72 1.33 50
07/06/2017 13.31 27.91 0.89 20
07/07/2017 13.31 27.60 0.72 12
07/08/2017 13.33 28.43 0.72 12
07/09/2017 13.31 26.99 0.75 13
07/10/2017 13.26 24.79 1.16 38
07/11/2017 13.31 26.44 1.59 75
07/12/2017 13.36 25.82 1.68 86
07/13/2017 13.29 24.76 1.69 86
07/14/2017 13.35 26.44 1.51 66
07/15/2017 13.32 28.32 1.47 62
07/16/2017 13.31 27.89 1.20 39
07/17/2017 13.34 27.41 1.05 28
07/18/2017 13.32 29.25 1.01 26
07/19/2017 13.27 26.80 0.94 22
07/20/2017 13.27 23.79 1.09 34
07/21/2017 13.33 27.24 1.46 61
07/22/2017 13.36 26.78 1.59 77
07/23/2017 13.33 28.14 1.80 100
07/24/2017 13.27 25.57 1.75 93
07/25/2017 13.28 22.18 1.96 123
07/26/2017 13.33 26.11 2.02 132
07/27/2017 13.34 26.46 1.97 123
07/28/2017 13.36 24.59 1.83 105
07/29/2017 13.31 24.69 1.70 87
07/30/2017 13.33 26.50 1.68 85
07/31/2017 13.32 26.05 1.73 91
Average 61
Maximum 132
Minimum 12
Total Volume (AF) 3,754